Time;durP1;ratioP1;P1;durP2;ratioP2;P2;SDS_P1;SDS_P2;PMS_P1;PMS_P2;Temp;Humidity;BMP_temperature;BMP_pressure;BME280_temperature;BME280_humidity;BME280_pressure;Samples;Min_cycle;Max_cycle;Signal;HPM_P1;HPM_P2
2021/06/14 00:00:01;;;;;;;;;25.50;25.50;;;;;;;;3539972;39;112049;-78
2021/06/14 00:02:29;;;;;;;;;25.25;23.50;;;;;;;;3538766;39;113473;-78
2021/06/14 00:04:56;;;;;;;;;25.00;23.75;;;;;;;;3537729;39;113180;-78
2021/06/14 00:07:23;;;;;;;;;22.75;22.50;;;;;;;;3541714;39;112112;-78
2021/06/14 00:09:50;;;;;;;;;24.50;24.50;;;;;;;;3534741;39;113062;-78
2021/06/14 00:12:21;;;;;;;;;23.50;22.00;;;;;;;;3539460;39;112108;-78
2021/06/14 00:14:49;;;;;;;;;26.50;24.75;;;;;;;;3538772;39;113282;-78
2021/06/14 00:17:16;;;;;;;;;21.00;20.75;;;;;;;;3539086;39;114312;-78
2021/06/14 00:19:43;;;;;;;;;24.75;24.75;;;;;;;;3538304;39;112225;-78
2021/06/14 00:22:09;;;;;;;;;21.50;20.50;;;;;;;;3539362;39;113481;-78
2021/06/14 00:24:36;;;;;;;;;24.75;23.25;;;;;;;;3537518;39;113907;-78
2021/06/14 00:27:02;;;;;;;;;19.50;19.50;;;;;;;;3541022;39;112033;-78
2021/06/14 00:29:29;;;;;;;;;21.25;21.00;;;;;;;;3538885;39;114683;-78
2021/06/14 00:31:57;;;;;;;;;23.25;23.25;;;;;;;;3538974;39;112006;-78
2021/06/14 00:34:23;;;;;;;;;26.75;24.75;;;;;;;;3538907;39;113444;-78
2021/06/14 00:36:50;;;;;;;;;23.00;21.25;;;;;;;;3538800;39;113815;-78
2021/06/14 00:39:17;;;;;;;;;23.00;23.00;;;;;;;;3538506;39;112006;-77
2021/06/14 00:41:43;;;;;;;;;23.75;23.25;;;;;;;;3539739;39;113410;-78
2021/06/14 00:44:12;;;;;;;;;26.25;25.50;;;;;;;;3537633;39;113990;-78
2021/06/14 00:46:38;;;;;;;;;23.50;23.00;;;;;;;;3538231;39;111594;-77
2021/06/14 00:49:06;;;;;;;;;25.25;25.00;;;;;;;;3540309;39;113315;-78
2021/06/14 00:51:33;;;;;;;;;26.00;25.50;;;;;;;;3539643;39;112188;-78
2021/06/14 00:54:00;;;;;;;;;26.50;26.00;;;;;;;;3538459;39;113351;-78
2021/06/14 00:56:28;;;;;;;;;24.25;24.25;;;;;;;;3538782;39;114000;-78
2021/06/14 00:58:54;;;;;;;;;25.25;22.75;;;;;;;;3538931;39;111982;-78
2021/06/14 01:01:21;;;;;;;;;24.50;24.25;;;;;;;;3538579;39;113478;-79
2021/06/14 01:03:48;;;;;;;;;25.00;24.00;;;;;;;;3538687;39;114694;-79
2021/06/14 01:06:16;;;;;;;;;26.75;24.50;;;;;;;;3535865;39;113026;-78
2021/06/14 01:08:43;;;;;;;;;25.00;23.25;;;;;;;;3538137;39;113342;-78
2021/06/14 01:11:12;;;;;;;;;24.75;24.50;;;;;;;;3540036;39;114435;-78
2021/06/14 01:13:41;;;;;;;;;27.00;25.25;;;;;;;;3538134;39;113539;-78
2021/06/14 01:16:13;;;;;;;;;25.75;25.50;;;;;;;;3537365;39;113950;-78
2021/06/14 01:18:42;;;;;;;;;28.50;26.25;;;;;;;;3537917;39;111819;-78
2021/06/14 01:21:12;;;;;;;;;25.25;24.00;;;;;;;;3539600;39;113927;-78
2021/06/14 01:24:06;;;;;;;;;22.00;22.00;;;;;;;;3537594;39;113920;-78
2021/06/14 01:26:41;;;;;;;;;23.50;23.00;;;;;;;;3539533;39;112368;-78
2021/06/14 01:29:10;;;;;;;;;26.00;24.50;;;;;;;;3537758;39;114350;-78
2021/06/14 01:31:37;;;;;;;;;27.50;26.00;;;;;;;;3537473;39;114942;-78
2021/06/14 01:34:05;;;;;;;;;23.75;23.25;;;;;;;;3542188;39;112285;-76
2021/06/14 01:36:33;;;;;;;;;25.50;24.50;;;;;;;;3537500;39;113958;-78
2021/06/14 01:39:00;;;;;;;;;23.75;22.50;;;;;;;;3539023;39;112067;-78
2021/06/14 01:41:28;;;;;;;;;26.75;23.50;;;;;;;;3538058;39;113256;-78
2021/06/14 01:43:55;;;;;;;;;26.25;25.75;;;;;;;;3538205;39;113845;-78
2021/06/14 01:46:24;;;;;;;;;24.75;24.00;;;;;;;;3538444;39;112609;-79
2021/06/14 01:48:51;;;;;;;;;26.50;24.00;;;;;;;;3538684;39;113768;-78
2021/06/14 01:51:19;;;;;;;;;23.00;23.00;;;;;;;;3538247;39;113853;-78
2021/06/14 01:54:02;;;;;;;;;25.25;24.50;;;;;;;;3537554;39;111858;-78
2021/06/14 01:56:29;;;;;;;;;23.50;23.00;;;;;;;;3541054;39;114179;-77
2021/06/14 01:58:57;;;;;;;;;25.25;23.00;;;;;;;;3538154;39;111912;-78
2021/06/14 02:01:27;;;;;;;;;26.00;25.00;;;;;;;;3536821;39;112451;-75
2021/06/14 02:03:53;;;;;;;;;27.50;23.25;;;;;;;;3537709;39;114142;-76
2021/06/14 02:06:21;;;;;;;;;27.25;26.00;;;;;;;;3538044;39;111928;-77
2021/06/14 02:08:49;;;;;;;;;26.50;24.25;;;;;;;;3538761;39;113300;-76
2021/06/14 02:11:16;;;;;;;;;24.50;22.00;;;;;;;;3538780;39;113988;-76
2021/06/14 02:13:42;;;;;;;;;27.50;25.00;;;;;;;;3537745;39;112399;-76
2021/06/14 02:16:09;;;;;;;;;28.50;28.25;;;;;;;;3538944;39;113469;-77
2021/06/14 02:18:37;;;;;;;;;29.25;24.25;;;;;;;;3539604;39;111970;-76
2021/06/14 02:21:04;;;;;;;;;28.25;26.25;;;;;;;;3537527;39;113906;-76
2021/06/14 02:23:31;;;;;;;;;29.75;27.50;;;;;;;;3538516;39;114078;-77
2021/06/14 02:25:57;;;;;;;;;30.75;29.75;;;;;;;;3537941;39;112308;-77
2021/06/14 02:28:24;;;;;;;;;32.00;30.00;;;;;;;;3537420;39;113630;-77
2021/06/14 02:30:51;;;;;;;;;29.75;29.00;;;;;;;;3537699;39;114348;-76
2021/06/14 02:33:17;;;;;;;;;27.75;27.75;;;;;;;;3538137;39;112191;-76
2021/06/14 02:35:45;;;;;;;;;31.25;27.75;;;;;;;;3537863;39;113265;-76
2021/06/14 02:38:12;;;;;;;;;28.75;27.50;;;;;;;;3540653;39;113904;-76
2021/06/14 02:40:40;;;;;;;;;29.25;27.00;;;;;;;;3537400;39;115553;-76
2021/06/14 02:43:09;;;;;;;;;29.75;27.25;;;;;;;;3538475;39;114178;-77
2021/06/14 02:45:37;;;;;;;;;29.00;26.25;;;;;;;;3538169;39;111851;-77
2021/06/14 02:48:05;;;;;;;;;27.50;26.00;;;;;;;;3538502;39;113268;-77
2021/06/14 02:50:32;;;;;;;;;29.25;27.00;;;;;;;;3538335;39;113880;-77
2021/06/14 02:53:01;;;;;;;;;24.50;23.75;;;;;;;;3540138;39;112049;-76
2021/06/14 02:55:29;;;;;;;;;14.75;14.25;;;;;;;;3538808;39;113363;-74
2021/06/14 02:57:58;;;;;;;;;29.75;26.50;;;;;;;;3539307;39;113829;-74
2021/06/14 03:00:28;;;;;;;;;27.00;26.50;;;;;;;;3541651;39;112028;-75
2021/06/14 03:02:55;;;;;;;;;26.25;25.25;;;;;;;;3538338;39;114091;-76
2021/06/14 03:05:22;;;;;;;;;22.50;21.00;;;;;;;;3538100;39;112174;-75
2021/06/14 03:07:49;;;;;;;;;27.50;23.50;;;;;;;;3538737;39;113150;-75
2021/06/14 03:10:17;;;;;;;;;25.75;22.50;;;;;;;;3539142;39;113827;-75
2021/06/14 03:12:43;;;;;;;;;30.00;26.00;;;;;;;;3539707;39;113021;-75
2021/06/14 03:15:10;;;;;;;;;28.75;28.00;;;;;;;;3538286;39;113355;-75
2021/06/14 03:17:37;;;;;;;;;30.25;28.50;;;;;;;;3538228;39;114464;-76
2021/06/14 03:20:05;;;;;;;;;34.50;29.75;;;;;;;;3539254;39;112746;-74
2021/06/14 03:22:32;;;;;;;;;34.50;30.00;;;;;;;;3541537;39;113436;-75
2021/06/14 03:24:59;;;;;;;;;32.25;29.50;;;;;;;;3538352;39;111952;-74
2021/06/14 03:27:27;;;;;;;;;35.50;30.25;;;;;;;;3538780;39;113624;-74
2021/06/14 03:29:54;;;;;;;;;28.75;28.00;;;;;;;;3537395;39;113942;-74
2021/06/14 03:32:20;;;;;;;;;29.75;26.50;;;;;;;;3537478;39;111993;-74
2021/06/14 03:34:47;;;;;;;;;33.50;30.00;;;;;;;;3537873;39;113351;-75
2021/06/14 03:37:14;;;;;;;;;34.25;30.00;;;;;;;;3537963;39;114052;-75
2021/06/14 03:39:41;;;;;;;;;31.50;30.00;;;;;;;;3538594;39;111864;-75
2021/06/14 03:42:08;;;;;;;;;31.00;29.75;;;;;;;;3539375;39;113266;-74
2021/06/14 03:44:36;;;;;;;;;34.25;30.75;;;;;;;;3540478;39;113815;-74
2021/06/14 03:47:03;;;;;;;;;36.50;33.00;;;;;;;;3537979;39;113905;-74
2021/06/14 03:49:30;;;;;;;;;33.00;31.75;;;;;;;;3537944;39;113896;-74
2021/06/14 03:51:56;;;;;;;;;29.00;28.50;;;;;;;;3539337;39;112111;-75
2021/06/14 03:54:23;;;;;;;;;35.00;32.00;;;;;;;;3538368;39;113796;-74
2021/06/14 03:56:49;;;;;;;;;36.00;32.50;;;;;;;;3537743;39;113792;-75
2021/06/14 03:59:16;;;;;;;;;38.25;32.00;;;;;;;;3540018;39;113128;-75
2021/06/14 04:01:44;;;;;;;;;35.25;31.75;;;;;;;;3538735;39;114361;-76
2021/06/14 04:04:26;;;;;;;;;41.00;33.25;;;;;;;;3537742;39;112855;-75
2021/06/14 04:06:53;;;;;;;;;36.75;32.25;;;;;;;;3540865;39;112353;-75
2021/06/14 04:09:20;;;;;;;;;38.75;33.75;;;;;;;;3537441;39;113853;-75
2021/06/14 04:11:46;;;;;;;;;33.75;31.25;;;;;;;;3539638;39;111902;-75
2021/06/14 04:14:13;;;;;;;;;37.25;32.00;;;;;;;;3537976;39;113284;-74
2021/06/14 04:16:40;;;;;;;;;39.50;33.00;;;;;;;;3537994;39;113840;-75
2021/06/14 04:19:08;;;;;;;;;39.25;34.75;;;;;;;;3539866;39;111889;-75
2021/06/14 04:21:34;;;;;;;;;36.25;32.25;;;;;;;;3538242;39;113647;-73
2021/06/14 04:24:01;;;;;;;;;35.00;32.00;;;;;;;;3539462;39;113700;-78
2021/06/14 04:26:28;;;;;;;;;39.75;33.25;;;;;;;;3541886;39;111931;-77
2021/06/14 04:28:54;;;;;;;;;38.25;33.00;;;;;;;;3539505;39;113847;-76
2021/06/14 04:31:21;;;;;;;;;35.75;33.00;;;;;;;;3534913;39;112017;-78
2021/06/14 04:33:48;;;;;;;;;36.25;32.00;;;;;;;;3539348;39;113471;-78
2021/06/14 04:36:16;;;;;;;;;40.25;33.00;;;;;;;;3538233;39;113776;-77
2021/06/14 04:38:42;;;;;;;;;34.75;31.00;;;;;;;;3539835;39;112283;-78
2021/06/14 04:41:09;;;;;;;;;35.25;32.00;;;;;;;;3538228;39;113369;-78
2021/06/14 04:43:36;;;;;;;;;35.75;31.25;;;;;;;;3539768;39;114426;-78
2021/06/14 04:46:02;;;;;;;;;35.50;32.75;;;;;;;;3540144;39;112018;-77
2021/06/14 04:48:29;;;;;;;;;35.25;32.00;;;;;;;;3540672;39;113449;-77
2021/06/14 04:50:56;;;;;;;;;37.25;33.00;;;;;;;;3539429;39;112151;-78
2021/06/14 04:53:24;;;;;;;;;31.25;30.50;;;;;;;;3538929;39;113550;-77
2021/06/14 04:55:50;;;;;;;;;38.25;33.50;;;;;;;;3538684;39;114211;-77
2021/06/14 04:58:17;;;;;;;;;38.50;32.00;;;;;;;;3539318;39;112144;-78
2021/06/14 05:00:43;;;;;;;;;36.25;32.75;;;;;;;;3538871;39;113439;-78
2021/06/14 05:03:10;;;;;;;;;39.25;33.00;;;;;;;;3539049;39;114112;-78
2021/06/14 05:05:37;;;;;;;;;40.00;33.25;;;;;;;;3537938;39;112814;-77
2021/06/14 05:08:03;;;;;;;;;38.50;34.25;;;;;;;;3539430;39;113334;-75
2021/06/14 05:10:31;;;;;;;;;41.00;35.00;;;;;;;;3540160;39;114669;-75
2021/06/14 05:12:58;;;;;;;;;36.75;32.50;;;;;;;;3534644;39;112872;-75
2021/06/14 05:15:25;;;;;;;;;43.50;35.00;;;;;;;;3537641;39;114425;-74
2021/06/14 05:17:52;;;;;;;;;44.00;37.25;;;;;;;;3538532;39;112444;-75
2021/06/14 05:20:19;;;;;;;;;41.25;34.75;;;;;;;;3537164;39;113306;-76
2021/06/14 05:22:45;;;;;;;;;33.25;31.75;;;;;;;;3525125;39;113533;-74
2021/06/14 05:25:13;;;;;;;;;40.25;35.00;;;;;;;;3534930;39;113072;-74
2021/06/14 05:27:41;;;;;;;;;40.50;35.50;;;;;;;;3538351;39;113290;-77
2021/06/14 05:30:08;;;;;;;;;44.25;36.00;;;;;;;;3537552;39;113774;-76
2021/06/14 05:32:35;;;;;;;;;45.00;37.00;;;;;;;;3540024;39;112079;-72
2021/06/14 05:35:01;;;;;;;;;44.75;38.25;;;;;;;;3535820;39;113865;-72
2021/06/14 05:37:28;;;;;;;;;41.75;36.00;;;;;;;;3535952;39;113564;-72
2021/06/14 05:39:54;;;;;;;;;44.25;35.75;;;;;;;;3536595;39;113408;-74
2021/06/14 05:42:21;;;;;;;;;45.00;36.00;;;;;;;;3536573;39;113912;-74
2021/06/14 05:44:49;;;;;;;;;42.25;35.75;;;;;;;;3536954;39;112001;-72
2021/06/14 05:47:16;;;;;;;;;42.00;35.75;;;;;;;;3537009;39;113603;-73
2021/06/14 05:49:42;;;;;;;;;38.25;34.00;;;;;;;;3536274;39;114066;-73
2021/06/14 05:52:09;;;;;;;;;42.25;35.00;;;;;;;;3536994;39;113620;-74
2021/06/14 05:54:35;;;;;;;;;46.50;37.25;;;;;;;;3538514;39;113685;-73
2021/06/14 05:57:03;;;;;;;;;41.50;36.00;;;;;;;;3538506;39;112517;-72
2021/06/14 05:59:29;;;;;;;;;42.75;35.00;;;;;;;;3535920;39;113223;-71
2021/06/14 06:01:58;;;;;;;;;43.00;35.50;;;;;;;;3527303;39;113638;-72
2021/06/14 06:04:24;;;;;;;;;42.25;35.50;;;;;;;;3536124;39;112793;-72
2021/06/14 06:06:51;;;;;;;;;49.25;39.75;;;;;;;;3536775;39;113273;-72
2021/06/14 06:09:17;;;;;;;;;44.25;37.00;;;;;;;;3537290;39;114065;-73
2021/06/14 06:11:44;;;;;;;;;43.75;37.00;;;;;;;;3538041;39;112040;-73
2021/06/14 06:14:10;;;;;;;;;46.00;37.75;;;;;;;;3537012;39;113436;-73
2021/06/14 06:16:37;;;;;;;;;40.50;33.75;;;;;;;;3540092;39;114271;-73
2021/06/14 06:19:05;;;;;;;;;41.75;35.75;;;;;;;;3538301;39;113370;-73
2021/06/14 06:21:31;;;;;;;;;49.00;38.25;;;;;;;;3539041;39;114544;-73
2021/06/14 06:23:58;;;;;;;;;40.25;34.50;;;;;;;;3538829;39;112048;-73
2021/06/14 06:26:25;;;;;;;;;43.50;36.50;;;;;;;;3538352;39;113352;-72
2021/06/14 06:28:52;;;;;;;;;47.00;39.50;;;;;;;;3538778;39;114011;-73
2021/06/14 06:31:18;;;;;;;;;39.50;33.00;;;;;;;;3539411;39;113192;-73
2021/06/14 06:33:45;;;;;;;;;41.00;32.25;;;;;;;;3538478;39;114049;-73
2021/06/14 06:36:13;;;;;;;;;40.50;36.00;;;;;;;;3540003;39;113800;-72
2021/06/14 06:38:40;;;;;;;;;42.75;35.75;;;;;;;;3537424;39;113580;-73
2021/06/14 06:41:07;;;;;;;;;41.25;35.25;;;;;;;;3537502;39;115172;-73
2021/06/14 06:43:35;;;;;;;;;44.75;36.50;;;;;;;;3537037;39;111960;-73
2021/06/14 06:46:02;;;;;;;;;53.25;43.50;;;;;;;;3538240;39;113432;-76
2021/06/14 06:48:29;;;;;;;;;48.25;41.25;;;;;;;;3537700;39;114485;-75
2021/06/14 06:50:56;;;;;;;;;48.00;39.75;;;;;;;;3537368;39;112656;-79
2021/06/14 06:53:24;;;;;;;;;45.00;36.00;;;;;;;;3538367;39;112952;-77
2021/06/14 06:55:50;;;;;;;;;47.25;38.00;;;;;;;;3536832;39;113920;-76
2021/06/14 06:58:17;;;;;;;;;52.00;41.25;;;;;;;;3540788;39;112561;-76
2021/06/14 07:00:47;;;;;;;;;44.25;38.25;;;;;;;;3538990;39;113977;-77
2021/06/14 07:03:14;;;;;;;;;49.25;40.00;;;;;;;;3539380;39;112789;-77
2021/06/14 07:05:40;;;;;;;;;46.75;39.75;;;;;;;;3538891;39;113282;-78
2021/06/14 07:08:07;;;;;;;;;44.00;37.00;;;;;;;;3539023;39;114588;-77
2021/06/14 07:10:35;;;;;;;;;37.25;33.00;;;;;;;;3538156;39;112398;-77
2021/06/14 07:13:02;;;;;;;;;47.00;38.50;;;;;;;;3539493;39;113418;-77
2021/06/14 07:15:28;;;;;;;;;47.50;38.25;;;;;;;;3538258;39;113879;-78
2021/06/14 07:17:55;;;;;;;;;42.75;36.00;;;;;;;;3538647;39;112215;-77
2021/06/14 07:20:22;;;;;;;;;46.00;37.75;;;;;;;;3541268;39;113334;-78
2021/06/14 07:22:48;;;;;;;;;41.25;35.00;;;;;;;;3537553;39;112224;-80
2021/06/14 07:25:15;;;;;;;;;47.50;38.75;;;;;;;;3539182;39;113250;-79
2021/06/14 07:27:44;;;;;;;;;48.25;39.50;;;;;;;;3537202;39;113949;-78
2021/06/14 07:30:12;;;;;;;;;49.75;41.25;;;;;;;;3537672;39;111824;-77
2021/06/14 07:32:39;;;;;;;;;42.50;34.75;;;;;;;;3537787;39;113448;-79
2021/06/14 07:35:06;;;;;;;;;45.75;38.50;;;;;;;;3538399;39;113889;-77
2021/06/14 07:37:33;;;;;;;;;47.50;39.75;;;;;;;;3538139;39;112197;-79
2021/06/14 07:40:00;;;;;;;;;45.00;38.00;;;;;;;;3540439;39;113301;-77
2021/06/14 07:42:26;;;;;;;;;49.50;40.75;;;;;;;;3541261;39;113986;-77
2021/06/14 07:44:54;;;;;;;;;44.25;37.50;;;;;;;;3538773;39;113601;-76
2021/06/14 07:47:21;;;;;;;;;45.50;37.75;;;;;;;;3538406;39;113958;-78
2021/06/14 07:49:47;;;;;;;;;42.75;37.75;;;;;;;;3538317;39;112949;-79
2021/06/14 07:52:14;;;;;;;;;46.00;37.00;;;;;;;;3538735;39;113334;-77
2021/06/14 07:54:41;;;;;;;;;38.25;33.50;;;;;;;;3539358;39;114016;-79
2021/06/14 07:57:07;;;;;;;;;41.25;35.50;;;;;;;;3538800;39;112116;-77
2021/06/14 07:59:34;;;;;;;;;39.50;35.00;;;;;;;;3539707;39;113306;-81
2021/06/14 08:02:02;;;;;;;;;38.75;33.25;;;;;;;;3537916;39;113918;-80
2021/06/14 08:04:29;;;;;;;;;40.00;35.00;;;;;;;;3541009;39;111934;-79
2021/06/14 08:06:59;;;;;;;;;39.75;33.50;;;;;;;;3539563;39;114120;-80
2021/06/14 08:09:28;;;;;;;;;35.50;31.25;;;;;;;;3538663;39;112286;-75
2021/06/14 08:11:56;;;;;;;;;48.50;39.25;;;;;;;;3537822;39;113371;-73
2021/06/14 08:14:23;;;;;;;;;45.75;36.50;;;;;;;;3537876;39;113802;-74
2021/06/14 08:16:50;;;;;;;;;43.75;35.75;;;;;;;;3538746;39;112499;-75
2021/06/14 08:19:26;;;;;;;;;44.00;37.50;;;;;;;;3534808;39;113029;-81
2021/06/14 08:27:23;;;;;;;;;45.25;37.25;;;;;;;;3543826;39;112208;-79
2021/06/14 08:29:50;;;;;;;;;54.25;42.00;;;;;;;;3536653;39;112163;-77
2021/06/14 08:32:17;;;;;;;;;45.75;37.75;;;;;;;;3538518;39;113629;-78
2021/06/14 08:34:45;;;;;;;;;43.00;36.00;;;;;;;;3538450;39;114124;-78
2021/06/14 08:37:11;;;;;;;;;43.25;35.50;;;;;;;;3538094;39;111926;-77
2021/06/14 08:39:38;;;;;;;;;45.25;37.75;;;;;;;;3539785;39;113792;-76
2021/06/14 08:42:05;;;;;;;;;41.00;35.50;;;;;;;;3536342;39;113967;-81
2021/06/14 08:44:33;;;;;;;;;41.50;34.25;;;;;;;;3537825;39;112282;-77
2021/06/14 08:47:02;;;;;;;;;39.50;34.50;;;;;;;;3543529;39;113305;-76
2021/06/14 08:49:29;;;;;;;;;37.00;32.75;;;;;;;;3539489;39;112384;-78
2021/06/14 08:51:58;;;;;;;;;43.25;34.25;;;;;;;;3537689;39;113906;-77
2021/06/14 08:54:25;;;;;;;;;39.25;33.00;;;;;;;;3537463;39;114554;-77
2021/06/14 08:56:51;;;;;;;;;39.25;33.25;;;;;;;;3537668;39;111779;-78
2021/06/14 08:59:18;;;;;;;;;37.00;33.25;;;;;;;;3537676;39;113211;-84
2021/06/14 09:01:44;;;;;;;;;38.67;32.33;;;;;;;;3538826;39;113863;-81
2021/06/14 09:04:11;;;;;;;;;40.00;33.67;;;;;;;;3539361;39;113759;-86
2021/06/14 09:06:37;;;;;;;;;40.00;33.00;;;;;;;;3538849;39;113683;-86
2021/06/14 09:09:07;;;;;;;;;37.33;31.67;;;;;;;;3540298;39;113940;-81
2021/06/14 09:11:35;;;;;;;;;36.67;32.67;;;;;;;;3541237;39;113719;-89
2021/06/14 09:14:01;;;;;;;;;37.33;32.67;;;;;;;;3541660;39;113959;-85
2021/06/14 09:16:30;;;;;;;;;40.00;34.00;;;;;;;;3539005;39;112275;-87
2021/06/14 09:18:56;;;;;;;;;35.00;32.00;;;;;;;;3536708;39;113104;-80
2021/06/14 09:21:26;;;;;;;;;39.33;34.33;;;;;;;;3536988;39;114098;-79
2021/06/14 09:23:53;;;;;;;;;37.00;32.67;;;;;;;;3539745;39;112003;-88
2021/06/14 09:26:26;;;;;;;;;42.00;36.50;;;;;;;;3538565;39;113445;-79
2021/06/14 09:28:57;;;;;;;;;41.25;33.50;;;;;;;;3538039;39;113802;-77
2021/06/14 09:31:26;;;;;;;;;42.25;34.50;;;;;;;;3541897;39;111842;-75
2021/06/14 09:33:53;;;;;;;;;38.00;33.67;;;;;;;;3536904;39;113845;-74
2021/06/14 09:36:23;;;;;;;;;37.33;33.33;;;;;;;;3538006;39;111986;-74
2021/06/14 09:38:50;;;;;;;;;40.25;33.75;;;;;;;;3537281;39;113244;-75
2021/06/14 09:41:17;;;;;;;;;36.00;31.33;;;;;;;;3536247;39;114392;-78
2021/06/14 09:43:46;;;;;;;;;40.33;34.67;;;;;;;;3536275;39;111978;-78
2021/06/14 09:46:25;;;;;;;;;36.00;30.75;;;;;;;;3537085;39;113790;-75
2021/06/14 09:48:52;;;;;;;;;38.75;33.25;;;;;;;;3536713;39;113973;-77
2021/06/14 09:51:19;;;;;;;;;35.50;31.00;;;;;;;;3536196;39;112120;-78
2021/06/14 09:53:47;;;;;;;;;38.75;33.25;;;;;;;;3538927;39;113172;-78
2021/06/14 09:56:15;;;;;;;;;37.25;33.00;;;;;;;;3539600;39;112102;-78
2021/06/14 09:58:42;;;;;;;;;42.75;35.25;;;;;;;;3540641;39;113458;-79
2021/06/14 10:01:10;;;;;;;;;41.00;35.00;;;;;;;;3538344;39;113413;-77
2021/06/14 10:03:41;;;;;;;;;35.00;32.25;;;;;;;;3540242;39;111789;-77
2021/06/14 10:06:08;;;;;;;;;45.75;38.25;;;;;;;;3538692;39;112883;-79
2021/06/14 10:08:35;;;;;;;;;40.50;34.75;;;;;;;;3538258;39;113720;-79
2021/06/14 10:11:03;;;;;;;;;36.00;32.50;;;;;;;;3538627;39;111870;-77
2021/06/14 10:13:30;;;;;;;;;38.75;33.25;;;;;;;;3539925;39;113305;-77
2021/06/14 10:15:59;;;;;;;;;35.00;31.50;;;;;;;;3540959;39;114020;-77
2021/06/14 10:18:31;;;;;;;;;37.25;32.75;;;;;;;;3540004;39;113351;-76
2021/06/14 10:20:58;;;;;;;;;34.75;31.75;;;;;;;;3538236;39;114384;-75
2021/06/14 10:23:24;;;;;;;;;38.50;33.00;;;;;;;;3539952;39;111748;-74
2021/06/14 10:25:51;;;;;;;;;37.50;32.00;;;;;;;;3538919;39;113413;-74
2021/06/14 10:28:20;;;;;;;;;36.50;31.50;;;;;;;;3538509;39;114271;-75
2021/06/14 10:30:46;;;;;;;;;36.25;32.00;;;;;;;;3539335;39;112001;-75
2021/06/14 10:33:15;;;;;;;;;28.33;28.00;;;;;;;;3538849;39;113961;-75
2021/06/14 10:35:43;;;;;;;;;34.50;30.75;;;;;;;;3539198;39;114288;-75
2021/06/14 10:38:11;;;;;;;;;34.25;30.50;;;;;;;;3539800;39;112226;-75
2021/06/14 10:40:38;;;;;;;;;36.00;30.75;;;;;;;;3539006;39;113928;-76
2021/06/14 10:43:05;;;;;;;;;35.50;31.00;;;;;;;;3538386;39;113475;-74
2021/06/14 10:45:33;;;;;;;;;34.25;31.00;;;;;;;;3538780;39;113345;-74
2021/06/14 10:48:00;;;;;;;;;33.50;29.00;;;;;;;;3537583;39;114010;-74
2021/06/14 10:50:28;;;;;;;;;37.50;32.25;;;;;;;;3539883;39;111739;-74
2021/06/14 10:52:56;;;;;;;;;33.00;30.75;;;;;;;;3538303;39;113848;-73
2021/06/14 10:55:25;;;;;;;;;36.50;31.00;;;;;;;;3536383;39;114340;-75
2021/06/14 10:57:51;;;;;;;;;32.00;30.50;;;;;;;;3541467;39;111880;-74
2021/06/14 11:00:25;;;;;;;;;34.50;31.50;;;;;;;;3538520;39;114130;-74
2021/06/14 11:02:52;;;;;;;;;36.25;32.75;;;;;;;;3538565;39;111860;-74
2021/06/14 11:05:27;;;;;;;;;36.25;32.00;;;;;;;;3538584;39;114010;-75
2021/06/14 11:07:54;;;;;;;;;29.25;27.75;;;;;;;;3537877;39;114064;-74
2021/06/14 11:10:26;;;;;;;;;36.00;32.00;;;;;;;;3539039;39;111777;-75
2021/06/14 11:12:53;;;;;;;;;30.50;29.25;;;;;;;;3539261;39;114007;-74
2021/06/14 11:15:22;;;;;;;;;37.50;30.25;;;;;;;;3538571;39;113948;-73
2021/06/14 11:17:49;;;;;;;;;31.25;29.25;;;;;;;;3538944;39;111895;-75
2021/06/14 11:20:16;;;;;;;;;32.00;30.25;;;;;;;;3541100;39;114019;-74
2021/06/14 11:22:44;;;;;;;;;35.00;31.25;;;;;;;;3539478;39;113118;-75
2021/06/14 11:25:18;;;;;;;;;34.00;31.25;;;;;;;;3538474;39;113606;-75
2021/06/14 11:27:46;;;;;;;;;30.50;28.00;;;;;;;;3538954;39;113662;-76
2021/06/14 11:30:13;;;;;;;;;33.00;29.75;;;;;;;;3538520;39;113031;-74
2021/06/14 11:32:40;;;;;;;;;32.33;29.33;;;;;;;;3539637;39;114103;-75
2021/06/14 11:35:07;;;;;;;;;31.25;29.75;;;;;;;;3537829;39;114369;-74
2021/06/14 11:37:38;;;;;;;;;31.75;30.00;;;;;;;;3538833;39;112071;-74
2021/06/14 11:40:05;;;;;;;;;35.25;31.50;;;;;;;;3541020;39;114543;-76
2021/06/14 11:42:43;;;;;;;;;35.50;30.00;;;;;;;;3540556;39;113881;-78
2021/06/14 11:45:22;;;;;;;;;33.75;30.00;;;;;;;;3538205;39;113539;-76
2021/06/14 11:47:52;;;;;;;;;32.50;30.50;;;;;;;;3539004;39;113991;-75
2021/06/14 11:50:22;;;;;;;;;33.25;30.75;;;;;;;;3538978;39;112840;-75
2021/06/14 11:52:56;;;;;;;;;31.50;28.25;;;;;;;;3539013;39;113630;-75
2021/06/14 11:55:23;;;;;;;;;33.00;30.25;;;;;;;;3536928;39;113893;-75
2021/06/14 11:57:54;;;;;;;;;27.75;27.75;;;;;;;;3538651;39;113960;-76
2021/06/14 12:00:28;;;;;;;;;32.25;30.00;;;;;;;;3538074;39;113270;-74
2021/06/14 12:02:54;;;;;;;;;34.75;30.00;;;;;;;;3539314;39;113727;-75
2021/06/14 12:05:29;;;;;;;;;29.50;26.25;;;;;;;;3541387;39;111968;-81
2021/06/14 12:07:56;;;;;;;;;36.00;31.00;;;;;;;;3537682;39;113876;-83
2021/06/14 12:10:23;;;;;;;;;34.50;31.00;;;;;;;;3540910;39;112981;-85
2021/06/14 12:13:01;;;;;;;;;27.75;25.75;;;;;;;;3538469;39;113827;-76
2021/06/14 12:15:29;;;;;;;;;28.00;28.00;;;;;;;;3538784;39;113879;-76
2021/06/14 12:17:55;;;;;;;;;34.25;31.00;;;;;;;;3539032;39;111958;-76
2021/06/14 12:20:23;;;;;;;;;31.25;30.00;;;;;;;;3539139;39;113973;-75
2021/06/14 12:22:58;;;;;;;;;32.75;30.25;;;;;;;;3538631;39;114346;-76
2021/06/14 12:25:24;;;;;;;;;29.50;28.25;;;;;;;;3536784;39;112297;-75
2021/06/14 12:27:57;;;;;;;;;27.33;26.00;;;;;;;;3539657;39;113899;-84
2021/06/14 12:30:25;;;;;;;;;25.00;24.33;;;;;;;;3538911;39;111997;-81
2021/06/14 12:32:54;;;;;;;;;32.50;30.50;;;;;;;;3538552;39;113278;-79
2021/06/14 12:35:21;;;;;;;;;29.00;27.67;;;;;;;;3538035;39;113806;-76
2021/06/14 12:37:47;;;;;;;;;30.00;29.00;;;;;;;;3538736;39;111898;-75
2021/06/14 12:40:16;;;;;;;;;29.00;25.67;;;;;;;;3540489;39;113458;-79
2021/06/14 12:42:44;;;;;;;;;32.25;30.00;;;;;;;;3538724;39;113702;-76
2021/06/14 12:45:11;;;;;;;;;30.00;28.00;;;;;;;;3538698;39;111894;-75
2021/06/14 12:47:42;;;;;;;;;28.75;28.00;;;;;;;;3537211;39;112988;-75
2021/06/14 12:50:12;;;;;;;;;30.33;29.00;;;;;;;;3540745;39;111858;-76
2021/06/14 12:52:39;;;;;;;;;28.33;28.00;;;;;;;;3538991;39;113504;-77
2021/06/14 12:55:06;;;;;;;;;33.00;30.00;;;;;;;;3536800;39;114053;-75
2021/06/14 12:57:37;;;;;;;;;29.00;28.00;;;;;;;;3539852;39;112265;-78
2021/06/14 13:00:06;;;;;;;;;30.33;28.33;;;;;;;;3540186;39;113593;-74
2021/06/14 13:02:32;;;;;;;;;29.00;27.00;;;;;;;;3538109;39;113907;-77
2021/06/14 13:05:10;;;;;;;;;29.00;28.00;;;;;;;;3540384;39;112465;-76
2021/06/14 13:07:37;;;;;;;;;29.67;28.33;;;;;;;;3540486;39;113368;-74
2021/06/14 13:10:13;;;;;;;;;28.67;28.00;;;;;;;;3542713;39;113881;-81
2021/06/14 13:12:40;;;;;;;;;29.00;28.00;;;;;;;;3539276;39;113737;-80
2021/06/14 13:15:08;;;;;;;;;33.00;30.00;;;;;;;;3538520;39;113938;-76
2021/06/14 13:17:34;;;;;;;;;28.33;26.67;;;;;;;;3537740;39;112231;-77
2021/06/14 13:20:01;;;;;;;;;31.67;29.33;;;;;;;;3536652;39;113322;-77
2021/06/14 13:22:34;;;;;;;;;30.00;28.00;;;;;;;;3537489;39;114034;-74
2021/06/14 13:25:04;;;;;;;;;30.67;28.00;;;;;;;;3537880;39;112215;-75
2021/06/14 13:27:32;;;;;;;;;31.00;29.67;;;;;;;;3536798;39;113559;-76
2021/06/14 13:29:58;;;;;;;;;32.33;30.00;;;;;;;;3535685;39;114565;-76
2021/06/14 13:32:31;;;;;;;;;30.00;28.00;;;;;;;;3540304;39;111983;-76
2021/06/14 13:34:58;;;;;;;;;27.33;27.33;;;;;;;;3536064;39;114200;-77
2021/06/14 13:37:25;;;;;;;;;24.67;24.00;;;;;;;;3538333;39;112303;-79
2021/06/14 13:39:53;;;;;;;;;33.33;30.33;;;;;;;;3542468;39;114269;-79
2021/06/14 13:42:20;;;;;;;;;29.00;28.00;;;;;;;;3537250;39;113987;-79
2021/06/14 13:44:50;;;;;;;;;32.67;29.67;;;;;;;;3536332;39;111982;-76
2021/06/14 13:47:18;;;;;;;;;33.00;29.75;;;;;;;;3537587;39;113321;-76
2021/06/14 13:49:46;;;;;;;;;33.75;30.00;;;;;;;;3535759;39;113966;-76
2021/06/14 13:52:15;;;;;;;;;30.00;28.00;;;;;;;;3537082;39;111917;-76
2021/06/14 13:54:42;;;;;;;;;33.00;30.00;;;;;;;;3538952;39;113489;-77
2021/06/14 13:57:11;;;;;;;;;29.67;27.67;;;;;;;;3537875;39;111788;-77
2021/06/14 13:59:38;;;;;;;;;25.50;25.50;;;;;;;;3538653;39;113213;-77
2021/06/14 14:02:05;;;;;;;;;29.67;28.00;;;;;;;;3538240;39;113878;-77
2021/06/14 14:04:32;;;;;;;;;27.00;27.00;;;;;;;;3537150;39;112133;-78
2021/06/14 14:06:59;;;;;;;;;31.00;28.50;;;;;;;;3536416;39;113915;-77
2021/06/14 14:09:29;;;;;;;;;27.67;27.67;;;;;;;;3537254;39;113879;-78
2021/06/14 14:11:57;;;;;;;;;27.67;26.00;;;;;;;;3536265;39;112319;-80